createdAt,value
2022-11-17T00:00:51.819Z,5.38
2022-11-17T00:03:21.770Z,4.95
2022-11-17T00:05:50.090Z,5.15
2022-11-17T00:08:20.399Z,5.32
2022-11-17T00:10:47.793Z,5.53
2022-11-17T00:13:33.325Z,5.72
2022-11-17T00:16:03.945Z,5.22
2022-11-17T00:18:49.033Z,5.20
2022-11-17T00:21:24.072Z,5.85
2022-11-17T00:23:57.081Z,4.53
2022-11-17T00:26:28.445Z,5.30
2022-11-17T00:28:57.011Z,3.97
2022-11-17T00:31:42.580Z,3.65
2022-11-17T00:34:15.723Z,6.13
2022-11-17T00:36:57.254Z,3.05
2022-11-17T00:39:27.815Z,5.50
2022-11-17T00:42:00.393Z,3.67
2022-11-17T00:44:32.740Z,5.10
2022-11-17T00:46:59.675Z,4.60
2022-11-17T00:49:30.039Z,4.88
2022-11-17T00:51:58.049Z,4.90
2022-11-17T00:54:24.915Z,5.28
2022-11-17T00:56:55.140Z,4.32
2022-11-17T00:59:25.779Z,4.32
2022-11-17T01:01:57.793Z,5.55
2022-11-17T01:04:30.599Z,5.15
2022-11-17T01:06:59.301Z,4.30
2022-11-17T01:09:29.335Z,4.75
2022-11-17T01:11:56.256Z,4.78
2022-11-17T01:14:28.451Z,4.28
2022-11-17T01:16:55.763Z,3.30
2022-11-17T01:19:32.330Z,5.32
2022-11-17T01:21:59.363Z,4.05
2022-11-17T01:24:29.524Z,5.60
2022-11-17T01:26:59.346Z,5.20
2022-11-17T01:29:29.612Z,5.13
2022-11-17T01:32:02.128Z,4.88
2022-11-17T01:34:29.056Z,5.32
2022-11-17T01:37:14.371Z,3.63
2022-11-17T01:39:44.461Z,5.53
2022-11-17T01:42:22.614Z,4.68
2022-11-17T01:45:02.685Z,2.58
2022-11-17T01:47:45.159Z,4.82
2022-11-17T01:50:15.450Z,6.20
2022-11-17T01:52:42.630Z,4.45
2022-11-17T01:55:09.860Z,5.32
2022-11-17T01:57:42.380Z,4.55
2022-11-17T02:00:15.365Z,4.28
2022-11-17T02:02:46.208Z,5.70
2022-11-17T02:05:22.508Z,4.78
2022-11-17T02:07:53.071Z,6.10
2022-11-17T02:10:23.259Z,3.38
2022-11-17T02:12:50.409Z,4.47
2022-11-17T02:15:20.842Z,3.72
2022-11-17T02:17:54.609Z,4.03
2022-11-17T02:20:35.779Z,3.85
2022-11-17T02:23:05.568Z,5.07
2022-11-17T02:25:50.884Z,3.78
2022-11-17T02:28:28.290Z,5.22
2022-11-17T02:31:10.549Z,1.33
2022-11-17T02:33:49.298Z,3.72
2022-11-17T02:36:36.425Z,4.43
2022-11-17T02:39:15.209Z,4.28
2022-11-17T02:41:57.677Z,4.55
2022-11-17T02:44:43.794Z,2.58
2022-11-17T02:47:16.042Z,4.35
2022-11-17T02:49:51.404Z,3.95
2022-11-17T02:52:21.530Z,3.08
2022-11-17T02:54:51.016Z,5.88
2022-11-17T02:57:37.286Z,3.75
2022-11-17T03:00:08.674Z,4.50
2022-11-17T03:02:46.361Z,3.83
2022-11-17T03:05:20.038Z,5.35
2022-11-17T03:08:07.333Z,4.40
2022-11-17T03:10:55.662Z,2.20
2022-11-17T03:13:44.004Z,2.45
2022-11-17T03:16:29.285Z,2.67
2022-11-17T03:19:02.792Z,5.90
2022-11-17T03:21:32.114Z,3.28
2022-11-17T03:24:04.528Z,4.32
2022-11-17T03:26:34.167Z,3.20
2022-11-17T03:29:07.325Z,5.03
2022-11-17T03:31:35.014Z,3.83
2022-11-17T03:34:04.129Z,4.15
2022-11-17T03:36:37.601Z,5.35
2022-11-17T03:39:18.090Z,4.95
2022-11-17T03:41:47.645Z,5.97
2022-11-17T03:44:20.269Z,5.03
2022-11-17T03:46:52.513Z,4.97
2022-11-17T03:49:24.202Z,3.30
2022-11-17T03:51:57.454Z,3.97
2022-11-17T03:54:28.178Z,4.75
2022-11-17T03:56:58.388Z,4.15
2022-11-17T03:59:30.604Z,5.35
2022-11-17T04:01:57.954Z,5.03
2022-11-17T04:04:48.790Z,4.20
2022-11-17T04:07:15.799Z,3.65
2022-11-17T04:09:43.574Z,4.15
2022-11-17T04:12:29.025Z,5.03
2022-11-17T04:15:14.225Z,4.97
2022-11-17T04:17:42.648Z,3.75
2022-11-17T04:20:15.982Z,3.78
2022-11-17T04:22:45.908Z,4.45
2022-11-17T04:25:36.680Z,3.45
2022-11-17T04:28:24.961Z,5.22
2022-11-17T04:30:57.327Z,3.55
2022-11-17T04:33:24.266Z,3.63
2022-11-17T04:35:56.525Z,4.07
2022-11-17T04:38:32.789Z,3.85
2022-11-17T04:41:25.001Z,4.25
2022-11-17T04:43:55.487Z,4.60
2022-11-17T04:46:26.290Z,3.83
2022-11-17T04:48:57.037Z,4.85
2022-11-17T04:51:29.379Z,2.08
2022-11-17T04:53:56.702Z,4.97
2022-11-17T04:56:27.358Z,4.10
2022-11-17T04:58:54.570Z,5.05
2022-11-17T05:01:28.535Z,5.15
2022-11-17T05:04:02.822Z,4.47
2022-11-17T05:06:43.463Z,2.03
2022-11-17T05:09:19.823Z,6.35
2022-11-17T05:12:07.569Z,4.55
2022-11-17T05:17:26.616Z,5.45
2022-11-17T05:20:37.511Z,5.75
2022-11-17T05:23:23.128Z,3.70
2022-11-17T05:25:57.551Z,5.38
2022-11-17T05:28:27.829Z,6.32
2022-11-17T05:30:58.088Z,5.28
2022-11-17T05:33:32.347Z,5.47
2022-11-17T05:36:03.713Z,3.47
2022-11-17T05:38:34.397Z,4.03
2022-11-17T05:41:01.797Z,4.78
2022-11-17T05:43:34.495Z,4.63
2022-11-17T05:46:10.848Z,1.23
2022-11-17T05:48:40.642Z,4.97
2022-11-17T05:51:11.289Z,4.72
2022-11-17T05:53:41.032Z,4.65
2022-11-17T05:56:11.576Z,5.40
2022-11-17T05:58:39.862Z,5.07
2022-11-17T06:01:10.561Z,5.20
2022-11-17T06:03:42.794Z,5.20
2022-11-17T06:06:12.320Z,6.38
2022-11-17T06:08:42.682Z,4.15
2022-11-17T06:11:13.557Z,3.53
2022-11-17T06:13:40.521Z,4.60
2022-11-17T06:16:08.898Z,5.05
2022-11-17T06:18:45.187Z,4.15
2022-11-17T06:21:16.072Z,3.85
2022-11-17T06:23:50.223Z,4.47
2022-11-17T06:26:17.922Z,4.75
2022-11-17T06:28:50.131Z,4.25
2022-11-17T06:31:24.584Z,3.97
2022-11-17T06:33:54.784Z,5.00
2022-11-17T06:36:27.612Z,5.15
2022-11-17T06:38:57.745Z,4.38
2022-11-17T06:41:28.544Z,4.05
2022-11-17T06:43:59.598Z,4.55
2022-11-17T06:46:38.189Z,5.57
2022-11-17T06:49:11.585Z,5.05
2022-11-17T06:51:44.945Z,3.58
2022-11-17T06:54:15.983Z,4.38
2022-11-17T06:56:49.279Z,2.53
2022-11-17T06:59:19.690Z,4.40
2022-11-17T07:01:49.046Z,3.75
2022-11-17T07:04:15.969Z,4.35
2022-11-17T07:06:45.285Z,4.82
2022-11-17T07:09:15.594Z,4.60
2022-11-17T07:11:42.635Z,3.97
2022-11-17T07:14:14.633Z,3.65
2022-11-17T07:16:47.260Z,4.53
2022-11-17T07:19:17.629Z,3.17
2022-11-17T07:21:47.494Z,4.07
2022-11-17T07:24:14.792Z,4.40
2022-11-17T07:26:43.516Z,4.07
2022-11-17T07:29:10.453Z,4.15
2022-11-17T07:31:40.828Z,3.15
2022-11-17T07:34:07.797Z,4.68
2022-11-17T07:36:34.761Z,3.92
2022-11-17T07:39:01.974Z,3.92
2022-11-17T07:41:32.526Z,4.13
2022-11-17T07:44:03.228Z,4.10
2022-11-17T07:46:33.612Z,2.13
2022-11-17T07:49:02.871Z,3.83
2022-11-17T07:51:30.040Z,3.72
2022-11-17T07:54:00.403Z,3.22
2022-11-17T07:56:27.350Z,2.97
2022-11-17T07:58:54.995Z,3.17
2022-11-17T08:01:22.004Z,3.85
2022-11-17T08:03:52.379Z,3.80
2022-11-17T08:06:24.791Z,3.20
2022-11-17T08:08:58.126Z,3.47
2022-11-17T08:11:28.198Z,2.55
2022-11-17T08:13:55.251Z,3.25
2022-11-17T08:16:31.562Z,3.10
2022-11-17T08:18:58.800Z,2.45
2022-11-17T08:21:25.747Z,2.60
2022-11-17T08:23:57.001Z,2.83
2022-11-17T08:26:26.804Z,1.85
2022-11-17T08:28:58.794Z,1.58
2022-11-17T08:31:26.282Z,2.35
2022-11-17T08:33:56.350Z,2.45
2022-11-17T08:36:28.952Z,1.98
2022-11-17T08:38:59.184Z,2.20
2022-11-17T08:41:26.976Z,2.05
2022-11-17T08:43:59.468Z,2.20
2022-11-17T08:46:27.469Z,2.00
2022-11-17T08:48:57.792Z,2.22
2022-11-17T08:51:25.481Z,2.05
2022-11-17T08:53:55.088Z,1.63
2022-11-17T08:56:22.448Z,2.00
2022-11-17T08:58:53.590Z,1.48
2022-11-17T09:01:26.319Z,1.77
2022-11-17T09:03:53.762Z,2.47
2022-11-17T09:06:23.829Z,1.77
2022-11-17T09:08:53.326Z,1.65
2022-11-17T09:11:24.208Z,2.33
2022-11-17T09:13:54.461Z,1.85
2022-11-17T09:16:24.329Z,2.10
2022-11-17T09:18:55.980Z,1.80
2022-11-17T09:21:25.968Z,2.55
2022-11-17T09:23:53.558Z,2.03
2022-11-17T09:26:26.984Z,2.28
2022-11-17T09:29:00.763Z,2.13
2022-11-17T09:31:27.997Z,2.35
2022-11-17T09:34:05.262Z,1.65
2022-11-17T09:36:33.690Z,1.80
2022-11-17T09:39:03.207Z,2.53
2022-11-17T09:41:41.539Z,1.40
2022-11-17T09:44:14.594Z,1.85
2022-11-17T09:47:04.039Z,1.55
2022-11-17T09:49:34.258Z,1.73
2022-11-17T09:52:11.774Z,1.90
2022-11-17T09:54:46.772Z,0.75
2022-11-17T09:57:20.550Z,1.75
2022-11-17T09:59:50.659Z,1.45
2022-11-17T10:02:20.882Z,1.70
2022-11-17T10:04:51.215Z,1.27
2022-11-17T10:07:20.642Z,1.40
2022-11-17T10:09:55.429Z,1.13
2022-11-17T10:12:27.109Z,1.52
2022-11-17T10:14:55.010Z,1.60
2022-11-17T10:17:25.099Z,1.25
2022-11-17T10:19:52.097Z,2.13
2022-11-17T10:22:34.962Z,1.70
2022-11-17T10:25:08.089Z,1.83
2022-11-17T10:27:38.219Z,1.77
2022-11-17T10:30:08.289Z,1.55
2022-11-17T10:32:47.886Z,2.50
2022-11-17T10:35:35.325Z,1.45
2022-11-17T10:38:07.360Z,1.67
2022-11-17T10:40:54.561Z,1.92
2022-11-17T10:43:26.197Z,2.40
2022-11-17T10:46:01.319Z,2.25
2022-11-17T10:48:33.651Z,2.03
2022-11-17T10:51:21.321Z,2.00
2022-11-17T10:54:02.552Z,2.65
2022-11-17T10:56:33.343Z,2.88
2022-11-17T10:59:15.583Z,1.63
2022-11-17T11:01:46.091Z,3.30
2022-11-17T11:04:32.704Z,0.50
2022-11-17T11:07:18.023Z,2.45
2022-11-17T11:10:05.980Z,2.70
2022-11-17T11:12:43.974Z,2.38
2022-11-17T11:15:21.772Z,2.03
2022-11-17T11:17:52.365Z,2.17
2022-11-17T11:20:23.641Z,1.60
2022-11-17T11:23:02.916Z,1.65
2022-11-17T11:25:36.364Z,1.98
2022-11-17T11:28:32.771Z,1.90
2022-11-17T11:31:03.693Z,2.00
2022-11-17T11:33:41.969Z,1.23
2022-11-17T11:36:27.797Z,1.23
2022-11-17T11:39:08.312Z,1.55
2022-11-17T11:41:44.732Z,2.10
2022-11-17T11:44:22.916Z,1.40
2022-11-17T11:46:50.064Z,2.00
2022-11-17T11:49:29.884Z,2.22
2022-11-17T11:52:06.163Z,1.65
2022-11-17T11:54:53.333Z,1.77
2022-11-17T11:57:28.338Z,1.65
2022-11-17T12:00:09.192Z,1.52
2022-11-17T12:02:55.119Z,1.70
2022-11-17T12:05:34.692Z,1.60
2022-11-17T12:08:13.444Z,1.80
2022-11-17T12:10:47.216Z,2.25
2022-11-17T12:13:18.512Z,1.90
2022-11-17T12:15:46.535Z,1.83
2022-11-17T12:18:16.459Z,1.65
2022-11-17T12:21:14.717Z,2.00
2022-11-17T12:24:00.163Z,2.78
2022-11-17T12:26:34.795Z,2.08
2022-11-17T12:29:20.132Z,2.40
2022-11-17T12:31:48.008Z,2.55
2022-11-17T12:34:27.132Z,2.45
2022-11-17T12:37:08.913Z,2.75
2022-11-17T12:39:58.847Z,2.67
2022-11-17T12:42:32.528Z,2.95
2022-11-17T12:45:03.938Z,2.40
2022-11-17T12:47:32.177Z,2.92
2022-11-17T12:50:20.684Z,2.75
2022-11-17T12:52:51.031Z,2.72
2022-11-17T12:55:26.390Z,2.92
2022-11-17T12:58:06.333Z,2.92
2022-11-17T13:00:47.637Z,2.40
2022-11-17T13:03:17.760Z,2.72
2022-11-17T13:06:01.727Z,3.10
2022-11-17T13:08:40.034Z,2.42
2022-11-17T13:11:12.342Z,2.58
2022-11-17T13:13:45.798Z,2.70
2022-11-17T13:16:24.497Z,2.15
2022-11-17T13:18:51.273Z,2.50
2022-11-17T13:21:31.171Z,2.30
2022-11-17T13:24:04.053Z,2.10
2022-11-17T13:26:38.823Z,2.30
2022-11-17T13:29:07.113Z,1.10
2022-11-17T13:31:35.016Z,1.70
2022-11-17T13:34:19.445Z,2.10
2022-11-17T13:37:00.258Z,1.70
2022-11-17T13:39:30.218Z,2.60
2022-11-17T13:42:01.100Z,1.80
2022-11-17T13:44:28.602Z,2.40
2022-11-17T13:47:20.376Z,0.90
2022-11-17T13:49:53.797Z,1.13
2022-11-17T13:52:40.602Z,1.17
2022-11-17T13:55:15.499Z,1.02
2022-11-17T13:58:03.411Z,0.73
2022-11-17T14:00:33.239Z,0.70
2022-11-17T14:03:05.616Z,0.82
2022-11-17T14:05:37.395Z,0.80
2022-11-17T14:08:11.876Z,0.80
2022-11-17T14:10:39.284Z,0.90
2022-11-17T14:13:06.738Z,0.80
2022-11-17T14:15:42.281Z,0.68
2022-11-17T14:18:39.701Z,0.75
2022-11-17T14:21:13.385Z,0.85
2022-11-17T14:23:47.170Z,0.75
2022-11-17T14:26:18.098Z,1.20
2022-11-17T14:28:48.433Z,0.90
2022-11-17T14:31:19.247Z,1.20
2022-11-17T14:33:46.523Z,1.00
2022-11-17T14:36:20.524Z,1.27
2022-11-17T14:38:47.798Z,0.98
2022-11-17T14:41:21.206Z,1.63
2022-11-17T14:43:51.742Z,1.40
2022-11-17T14:46:25.957Z,1.63
2022-11-17T14:48:53.552Z,1.35
2022-11-17T14:51:21.521Z,1.60
2022-11-17T14:53:54.738Z,1.23
2022-11-17T14:56:24.160Z,1.00
2022-11-17T14:58:58.364Z,0.88
2022-11-17T15:01:39.166Z,0.90
2022-11-17T15:07:07.712Z,0.80
2022-11-17T15:09:37.973Z,0.90
2022-11-17T15:12:11.252Z,1.00
2022-11-17T15:14:40.939Z,0.90
2022-11-17T15:17:14.488Z,0.88
2022-11-17T15:19:42.089Z,1.00
2022-11-17T15:22:13.538Z,1.10
2022-11-17T15:24:44.581Z,0.90
2022-11-17T15:27:17.179Z,0.70
2022-11-17T15:29:44.610Z,0.80
2022-11-17T15:32:14.712Z,0.98
2022-11-17T15:34:41.738Z,0.93
2022-11-17T15:37:11.524Z,0.98
2022-11-17T15:39:38.524Z,0.80
2022-11-17T15:42:08.715Z,0.90
2022-11-17T15:44:39.048Z,0.93
2022-11-17T15:47:09.768Z,0.90
2022-11-17T15:49:40.458Z,0.93
2022-11-17T15:52:07.854Z,0.88
2022-11-17T15:54:40.141Z,1.00
2022-11-17T15:57:07.075Z,1.17
2022-11-17T15:59:36.793Z,0.85
2022-11-17T16:02:08.330Z,0.90
2022-11-17T16:04:37.679Z,0.98
2022-11-17T16:07:04.791Z,0.90
2022-11-17T16:09:36.788Z,0.95
2022-11-17T16:12:07.917Z,1.00
2022-11-17T16:14:40.049Z,0.93
2022-11-17T16:17:07.033Z,1.13
2022-11-17T16:19:36.194Z,1.00
2022-11-17T16:22:06.318Z,0.80
2022-11-17T16:24:37.905Z,0.70
2022-11-17T16:27:13.982Z,0.60
2022-11-17T16:29:44.022Z,0.98
2022-11-17T16:32:13.730Z,0.73
2022-11-17T16:34:42.537Z,0.50
2022-11-17T16:37:10.095Z,0.73
2022-11-17T16:39:39.354Z,0.75
2022-11-17T16:42:07.600Z,1.60
2022-11-17T16:44:34.560Z,0.90
2022-11-17T16:47:04.869Z,0.70
2022-11-17T16:49:35.707Z,0.63
2022-11-17T16:52:08.720Z,0.88
2022-11-17T16:54:35.607Z,0.80
2022-11-17T16:57:02.738Z,0.70
2022-11-17T16:59:32.960Z,0.65
2022-11-17T17:02:04.284Z,0.93
2022-11-17T17:04:36.723Z,0.90
2022-11-17T17:07:06.663Z,1.00
2022-11-17T17:09:37.825Z,0.90
2022-11-17T17:12:05.091Z,0.95
2022-11-17T17:14:38.529Z,1.13
2022-11-17T17:17:10.007Z,1.15
2022-11-17T17:19:40.126Z,1.30
2022-11-17T17:22:07.099Z,1.20
2022-11-17T17:24:42.956Z,1.52
2022-11-17T17:27:12.934Z,1.50
2022-11-17T17:29:46.282Z,1.40
2022-11-17T17:32:18.967Z,3.00
2022-11-17T17:34:55.197Z,3.63
2022-11-17T17:37:22.278Z,2.70
2022-11-17T17:39:50.454Z,2.47
2022-11-17T17:42:20.769Z,1.90
2022-11-17T17:44:50.891Z,2.83
2022-11-17T17:47:20.728Z,2.25
2022-11-17T17:49:55.440Z,1.90
2022-11-17T17:52:23.162Z,1.63
2022-11-17T17:54:53.417Z,1.20
2022-11-17T17:57:20.412Z,1.25
2022-11-17T17:59:53.193Z,1.20
2022-11-17T18:02:20.221Z,1.30
2022-11-17T18:04:50.520Z,1.50
2022-11-17T18:07:23.620Z,1.77
2022-11-17T18:09:50.634Z,1.40
2022-11-17T18:12:26.097Z,1.50
2022-11-17T18:14:59.008Z,1.23
2022-11-17T18:17:28.848Z,1.65
2022-11-17T18:19:57.892Z,1.05
2022-11-17T18:22:27.850Z,1.20
2022-11-17T18:24:58.326Z,1.80
2022-11-17T18:27:25.408Z,1.60
2022-11-17T18:29:56.959Z,1.40
2022-11-17T18:32:27.299Z,1.45
2022-11-17T18:34:57.568Z,1.33
2022-11-17T18:37:30.242Z,1.38
2022-11-17T18:40:00.328Z,1.92
2022-11-17T18:42:30.368Z,1.52
2022-11-17T18:45:00.031Z,1.70
2022-11-17T18:47:30.115Z,1.35
2022-11-17T18:50:02.523Z,1.70
2022-11-17T18:52:31.488Z,1.73
2022-11-17T18:54:58.860Z,1.75
2022-11-17T18:57:29.124Z,2.20
2022-11-17T19:00:00.642Z,1.63
2022-11-17T19:02:31.090Z,2.10
2022-11-17T19:05:03.813Z,1.88
2022-11-17T19:07:37.961Z,1.80
2022-11-17T19:10:05.373Z,1.60
2022-11-17T19:12:32.440Z,1.73
2022-11-17T19:15:02.598Z,1.90
2022-11-17T19:17:29.528Z,1.90
2022-11-17T19:20:01.907Z,1.65
2022-11-17T19:22:29.447Z,1.38
2022-11-17T19:24:57.002Z,1.60
2022-11-17T19:27:26.687Z,1.65
2022-11-17T19:29:56.914Z,1.20
2022-11-17T19:32:27.208Z,1.52
2022-11-17T19:35:06.354Z,1.73
2022-11-17T19:37:41.922Z,1.38
2022-11-17T19:40:09.507Z,1.92
2022-11-17T19:42:45.073Z,2.13
2022-11-17T19:45:12.416Z,1.77
2022-11-17T19:47:42.520Z,1.30
2022-11-17T19:50:12.122Z,1.20
2022-11-17T19:52:44.057Z,1.20
2022-11-17T19:55:17.369Z,1.92
2022-11-17T19:57:44.799Z,1.67
2022-11-17T20:00:13.514Z,2.03
2022-11-17T20:02:43.253Z,1.17
2022-11-17T20:05:12.552Z,1.10
2022-11-17T20:07:39.709Z,1.33
2022-11-17T20:10:11.603Z,1.30
2022-11-17T20:12:43.377Z,1.40
2022-11-17T20:15:33.125Z,1.60
2022-11-17T20:18:01.072Z,1.38
2022-11-17T20:20:33.979Z,1.50
2022-11-17T20:23:03.900Z,1.40
2022-11-17T20:25:33.979Z,1.50
2022-11-17T20:28:04.122Z,1.20
2022-11-17T20:30:34.298Z,1.20
2022-11-17T20:33:07.053Z,1.40
2022-11-17T20:35:37.508Z,1.27
2022-11-17T20:38:04.847Z,1.58
2022-11-17T20:40:35.967Z,1.05
2022-11-17T20:43:06.287Z,0.90
2022-11-17T20:45:39.282Z,1.00
2022-11-17T20:48:18.787Z,1.30
2022-11-17T20:50:58.050Z,1.23
2022-11-17T20:53:25.194Z,1.17
2022-11-17T20:55:56.681Z,1.58
2022-11-17T20:58:29.414Z,1.30
2022-11-17T21:00:56.829Z,1.40
2022-11-17T21:03:25.257Z,1.40
2022-11-17T21:05:58.683Z,1.08
2022-11-17T21:08:33.197Z,1.02
2022-11-17T21:11:04.336Z,1.17
2022-11-17T21:13:35.499Z,1.35
2022-11-17T21:16:13.276Z,1.30
2022-11-17T21:18:49.083Z,1.38
2022-11-17T21:21:16.595Z,1.40
2022-11-17T21:23:44.369Z,1.13
2022-11-17T21:26:19.439Z,1.30
2022-11-17T21:28:49.883Z,1.30
2022-11-17T21:31:21.021Z,1.40
2022-11-17T21:34:08.213Z,1.05
2022-11-17T21:36:41.370Z,1.10
2022-11-17T21:39:11.874Z,1.35
2022-11-17T21:41:42.370Z,1.58
2022-11-17T21:44:14.681Z,1.65
2022-11-17T21:46:47.872Z,1.30
2022-11-17T21:49:18.221Z,0.95
2022-11-17T21:51:51.167Z,1.30
2022-11-17T21:54:22.292Z,2.08
2022-11-17T21:56:49.283Z,2.20
2022-11-17T21:59:21.163Z,2.75
2022-11-17T22:01:51.518Z,3.00
2022-11-17T22:04:23.754Z,2.78
2022-11-17T22:06:54.072Z,2.72
2022-11-17T22:09:28.291Z,2.67
2022-11-17T22:12:01.637Z,2.40
2022-11-17T22:14:31.820Z,2.17
2022-11-17T22:17:02.154Z,1.73
2022-11-17T22:19:34.016Z,2.03
2022-11-17T22:22:05.254Z,2.47
2022-11-17T22:24:39.876Z,2.20
2022-11-17T22:27:12.873Z,2.28
2022-11-17T22:29:49.326Z,2.00
2022-11-17T22:32:19.645Z,2.20
2022-11-17T22:34:49.908Z,2.13
2022-11-17T22:37:19.075Z,2.33
2022-11-17T22:39:46.001Z,1.73
2022-11-17T22:42:15.754Z,1.92
2022-11-17T22:44:48.129Z,1.90
2022-11-17T22:47:16.792Z,2.20
2022-11-17T22:49:46.563Z,1.85
2022-11-17T22:52:16.848Z,2.13
2022-11-17T22:54:47.409Z,1.80
2022-11-17T22:57:17.607Z,2.13
2022-11-17T22:59:47.568Z,1.88
2022-11-17T23:02:18.243Z,1.58
2022-11-17T23:04:49.802Z,2.47
2022-11-17T23:07:22.599Z,1.98
2022-11-17T23:09:49.728Z,2.08
2022-11-17T23:12:22.648Z,1.70
2022-11-17T23:14:57.758Z,1.58
2022-11-17T23:17:30.170Z,2.13
2022-11-17T23:19:57.312Z,1.52
2022-11-17T23:22:27.528Z,1.88
2022-11-17T23:24:54.293Z,1.50
2022-11-17T23:27:24.279Z,1.17
2022-11-17T23:29:51.203Z,1.70
2022-11-17T23:32:21.713Z,1.25
2022-11-17T23:34:51.755Z,2.05
2022-11-17T23:37:22.177Z,1.98
2022-11-17T23:39:52.404Z,1.60
2022-11-17T23:42:22.405Z,2.17
2022-11-17T23:44:56.924Z,2.00
2022-11-17T23:47:29.376Z,1.88
2022-11-17T23:49:59.221Z,2.80
2022-11-17T23:52:29.832Z,1.92
2022-11-17T23:55:07.404Z,2.00
2022-11-17T23:57:37.203Z,2.30
